Boynton Beach, Florida
Current Conditions -  °F | °C
As of 2:53 AM on Friday 28 Nov 2014 (Local Time) from KPBI Reporting Station
Clear Clear  
Wind Chill: 55°   Ceiling: Unl
Heat Index: 55°   Visibility: 10mi
Dew Point: 44°   Wind: 15mph
Humidity: 67%   Direction: 340°NNW
Pressure: 30.17"   Gusts: NA
Location:  26.53°N, 80.06°W
Report Text: KPBI 280753Z 34013KT 10SM CLR 13/07 A3017 RMK AO2 SLP215 T01280067
Loading
Personal Weather Stations






























Interactive Weather Map New forecast layout! Learn more

10-Day Weather Forecast

Advertisements
Track Severe Weather on mobile